Time;durP1;ratioP1;P1;durP2;ratioP2;P2;SDS_P1;SDS_P2;PMS_P1;PMS_P2;Temp;Humidity;BMP_temperature;BMP_pressure;BME280_temperature;BME280_humidity;BME280_pressure;Samples;Min_cycle;Max_cycle;Signal;HPM_P1;HPM_P2
2023/08/02 00:02:06;;;;;;;3.50;3.05;;;;;;;;;;4980679;28;20026;-56
2023/08/02 00:04:31;;;;;;;5.25;3.35;;;;;;;;;;4984875;28;20037;-57
2023/08/02 00:06:56;;;;;;;3.92;3.00;;;;;;;;;;4994593;28;20072;-56
2023/08/02 00:09:22;;;;;;;3.33;3.05;;;;;;;;;;4977179;28;20039;-56
2023/08/02 00:11:49;;;;;;;3.45;3.17;;;;;;;;;;4975140;28;20086;-56
2023/08/02 00:14:14;;;;;;;3.85;3.00;;;;;;;;;;4974973;28;20018;-57
2023/08/02 00:16:43;;;;;;;2.97;2.65;;;;;;;;;;5028460;23;20125;-56
2023/08/02 00:19:09;;;;;;;4.63;3.08;;;;;;;;;;4999599;23;20405;-60
2023/08/02 00:21:34;;;;;;;3.08;2.88;;;;;;;;;;4976790;28;20023;-61
2023/08/02 00:24:00;;;;;;;3.28;3.08;;;;;;;;;;4994326;28;20363;-61
2023/08/02 00:26:26;;;;;;;4.22;3.13;;;;;;;;;;5000350;28;20046;-61
2023/08/02 00:28:56;;;;;;;3.22;2.65;;;;;;;;;;5013634;28;20485;-61
2023/08/02 00:31:22;;;;;;;5.17;2.97;;;;;;;;;;4992495;28;20080;-61
2023/08/02 00:33:50;;;;;;;4.00;3.08;;;;;;;;;;4996797;28;20486;-61
2023/08/02 00:36:16;;;;;;;4.25;3.00;;;;;;;;;;4998450;28;20052;-61
2023/08/02 00:38:41;;;;;;;4.05;2.92;;;;;;;;;;4996068;28;20419;-61
2023/08/02 00:41:07;;;;;;;3.33;2.83;;;;;;;;;;4996313;28;20481;-61
2023/08/02 00:43:44;;;;;;;3.15;2.88;;;;;;;;;;4995946;28;20034;-61
2023/08/02 00:46:10;;;;;;;3.40;3.10;;;;;;;;;;5016873;28;20041;-61
2023/08/02 00:48:36;;;;;;;4.57;3.50;;;;;;;;;;4994357;28;20082;-61
2023/08/02 00:51:02;;;;;;;4.07;2.83;;;;;;;;;;4980430;28;20446;-61
2023/08/02 00:53:29;;;;;;;3.30;2.85;;;;;;;;;;4997903;28;20033;-61
2023/08/02 00:55:55;;;;;;;3.50;3.15;;;;;;;;;;4998171;28;20022;-57
2023/08/02 00:58:20;;;;;;;3.20;2.92;;;;;;;;;;4980265;28;20116;-57
2023/08/02 01:01:06;;;;;;;4.20;3.20;;;;;;;;;;5025159;23;20497;-61
2023/08/02 01:03:35;;;;;;;4.97;2.78;;;;;;;;;;5021552;23;20046;-56
2023/08/02 01:09:17;;;;;;;5.40;3.05;;;;;;;;;;5020292;23;20061;-56
2023/08/02 01:14:30;;;;;;;4.65;2.97;;;;;;;;;;5018103;23;20081;-56
2023/08/02 01:16:56;;;;;;;3.65;2.88;;;;;;;;;;5016632;28;20213;-60
2023/08/02 01:19:22;;;;;;;3.60;3.25;;;;;;;;;;4999018;28;20173;-61
2023/08/02 01:21:47;;;;;;;7.18;3.00;;;;;;;;;;5016612;28;20097;-61
2023/08/02 01:24:13;;;;;;;5.13;2.92;;;;;;;;;;5016869;28;20097;-61
2023/08/02 01:26:41;;;;;;;4.60;3.17;;;;;;;;;;5016595;28;20461;-61
2023/08/02 01:29:07;;;;;;;3.50;3.20;;;;;;;;;;5016532;28;20037;-61
2023/08/02 01:31:34;;;;;;;3.60;2.80;;;;;;;;;;5016392;28;20480;-60
2023/08/02 01:34:00;;;;;;;2.95;2.75;;;;;;;;;;5015185;28;20421;-61
2023/08/02 01:36:25;;;;;;;4.65;2.67;;;;;;;;;;4998715;28;20038;-60
2023/08/02 01:38:51;;;;;;;4.15;3.10;;;;;;;;;;4998733;28;20037;-60
2023/08/02 01:41:16;;;;;;;4.03;3.13;;;;;;;;;;4998958;28;20045;-61
2023/08/02 01:43:41;;;;;;;3.25;2.95;;;;;;;;;;5016462;28;20040;-60
2023/08/02 01:46:07;;;;;;;4.47;3.22;;;;;;;;;;5014903;28;20108;-60
2023/08/02 01:48:32;;;;;;;3.22;2.85;;;;;;;;;;5014912;28;20041;-60
2023/08/02 01:50:57;;;;;;;5.07;3.10;;;;;;;;;;5015994;28;20041;-61
2023/08/02 01:53:23;;;;;;;4.00;3.60;;;;;;;;;;5016033;28;20030;-61
2023/08/02 01:55:48;;;;;;;3.97;3.10;;;;;;;;;;5015780;28;20041;-61
2023/08/02 01:58:13;;;;;;;5.32;3.17;;;;;;;;;;5014064;28;20026;-61
2023/08/02 02:00:39;;;;;;;3.83;3.33;;;;;;;;;;4998300;28;20584;-61
2023/08/02 02:03:04;;;;;;;4.70;3.35;;;;;;;;;;5014664;28;20030;-61
2023/08/02 02:05:29;;;;;;;4.03;3.65;;;;;;;;;;4998192;28;20470;-61
2023/08/02 02:07:55;;;;;;;4.82;3.47;;;;;;;;;;5014528;28;20062;-61
2023/08/02 02:10:20;;;;;;;6.57;3.70;;;;;;;;;;5015753;28;20104;-61
2023/08/02 02:12:46;;;;;;;4.53;3.85;;;;;;;;;;5015681;28;20384;-61
2023/08/02 02:15:11;;;;;;;6.13;3.53;;;;;;;;;;4998055;28;20046;-61
2023/08/02 02:17:40;;;;;;;4.88;3.65;;;;;;;;;;4998311;28;20026;-61
2023/08/02 02:20:06;;;;;;;4.95;3.70;;;;;;;;;;5015656;28;20104;-61
2023/08/02 02:22:31;;;;;;;7.18;3.97;;;;;;;;;;5015625;28;20125;-61
2023/08/02 02:24:56;;;;;;;3.67;3.35;;;;;;;;;;5030814;28;20108;-61
2023/08/02 02:27:22;;;;;;;3.92;3.47;;;;;;;;;;5015383;28;20040;-61
2023/08/02 02:29:47;;;;;;;4.78;3.47;;;;;;;;;;4997749;28;20030;-61
2023/08/02 02:32:13;;;;;;;3.85;3.40;;;;;;;;;;5015347;28;20081;-61
2023/08/02 02:34:38;;;;;;;4.88;4.07;;;;;;;;;;5015366;28;20037;-61
2023/08/02 02:37:04;;;;;;;3.83;3.53;;;;;;;;;;4997649;28;20386;-61
2023/08/02 02:39:29;;;;;;;4.53;3.63;;;;;;;;;;5015260;28;20022;-61
2023/08/02 02:41:54;;;;;;;3.75;3.45;;;;;;;;;;5015276;28;20465;-61
2023/08/02 02:44:20;;;;;;;4.93;3.60;;;;;;;;;;5013826;28;20022;-61
2023/08/02 02:46:45;;;;;;;5.18;3.83;;;;;;;;;;5015245;28;20407;-61
2023/08/02 02:49:10;;;;;;;4.30;3.95;;;;;;;;;;5015041;28;20112;-61
2023/08/02 02:51:36;;;;;;;4.38;3.97;;;;;;;;;;5014962;28;20061;-61
2023/08/02 02:54:01;;;;;;;5.68;4.18;;;;;;;;;;5014936;28;20440;-61
2023/08/02 02:56:26;;;;;;;5.25;4.75;;;;;;;;;;4997249;28;20022;-60
2023/08/02 02:58:52;;;;;;;5.00;4.55;;;;;;;;;;5014818;28;20097;-60
2023/08/02 03:01:17;;;;;;;5.22;4.40;;;;;;;;;;5014899;28;20037;-60
2023/08/02 03:03:42;;;;;;;6.30;4.47;;;;;;;;;;5014766;28;20030;-61
2023/08/02 03:06:08;;;;;;;4.78;4.38;;;;;;;;;;5013437;28;20053;-61
2023/08/02 03:08:34;;;;;;;4.90;4.30;;;;;;;;;;5014546;28;20034;-61
2023/08/02 03:10:59;;;;;;;5.28;4.25;;;;;;;;;;4997250;28;20034;-60
2023/08/02 03:13:24;;;;;;;4.45;3.65;;;;;;;;;;5014590;28;20037;-61
2023/08/02 03:15:50;;;;;;;5.30;4.10;;;;;;;;;;4996929;28;20093;-60
2023/08/02 03:18:15;;;;;;;4.50;4.10;;;;;;;;;;5014753;28;20033;-60
2023/08/02 03:20:41;;;;;;;5.60;4.07;;;;;;;;;;5014474;28;20109;-61
2023/08/02 03:23:07;;;;;;;4.60;3.95;;;;;;;;;;5014389;28;20038;-61
2023/08/02 03:25:32;;;;;;;5.00;4.10;;;;;;;;;;5014407;28;20045;-61
2023/08/02 03:27:58;;;;;;;4.80;3.88;;;;;;;;;;5013157;28;20018;-61
2023/08/02 03:30:23;;;;;;;4.60;4.20;;;;;;;;;;4996701;28;20113;-61
2023/08/02 03:32:49;;;;;;;3.78;3.35;;;;;;;;;;5013131;28;20366;-60
2023/08/02 03:35:14;;;;;;;4.43;3.55;;;;;;;;;;5014374;28;20026;-60
2023/08/02 03:37:39;;;;;;;5.20;3.78;;;;;;;;;;5014186;28;20018;-60
2023/08/02 03:40:05;;;;;;;3.92;3.50;;;;;;;;;;4996494;28;20472;-60
2023/08/02 03:42:30;;;;;;;4.63;3.80;;;;;;;;;;5014329;28;20034;-61
2023/08/02 03:44:58;;;;;;;4.70;3.90;;;;;;;;;;5014200;28;20038;-60
2023/08/02 03:47:23;;;;;;;4.75;4.25;;;;;;;;;;5029233;28;20032;-61
2023/08/02 03:49:49;;;;;;;6.45;4.63;;;;;;;;;;5012931;28;20034;-60
2023/08/02 03:52:14;;;;;;;4.97;4.05;;;;;;;;;;5013778;28;20018;-61
2023/08/02 03:54:40;;;;;;;5.47;4.22;;;;;;;;;;5014029;28;20026;-61
2023/08/02 03:57:07;;;;;;;5.82;5.22;;;;;;;;;;5014075;28;20026;-60
2023/08/02 03:59:32;;;;;;;5.75;4.93;;;;;;;;;;4996924;28;20025;-61
2023/08/02 04:01:57;;;;;;;10.27;5.15;;;;;;;;;;5013762;28;20384;-60
2023/08/02 04:04:23;;;;;;;6.38;5.55;;;;;;;;;;5014442;28;20026;-61
2023/08/02 04:06:48;;;;;;;7.57;6.18;;;;;;;;;;5013351;28;20030;-61
2023/08/02 04:09:13;;;;;;;10.15;5.72;;;;;;;;;;5012634;28;20022;-61
2023/08/02 04:11:39;;;;;;;7.00;5.70;;;;;;;;;;5013453;28;20029;-61
2023/08/02 04:14:04;;;;;;;6.65;5.68;;;;;;;;;;5011243;28;20042;-61
2023/08/02 04:16:29;;;;;;;7.57;5.15;;;;;;;;;;4994387;28;20034;-60
2023/08/02 04:18:55;;;;;;;7.20;5.15;;;;;;;;;;4994039;28;20038;-60
2023/08/02 04:21:20;;;;;;;5.57;5.05;;;;;;;;;;4998020;28;20105;-61
2023/08/02 04:23:48;;;;;;;5.47;4.95;;;;;;;;;;4998163;28;20445;-61
2023/08/02 04:26:13;;;;;;;9.13;5.75;;;;;;;;;;4998309;28;20034;-59
2023/08/02 04:28:38;;;;;;;7.07;5.45;;;;;;;;;;4996343;28;20028;-59
2023/08/02 04:31:04;;;;;;;6.78;5.95;;;;;;;;;;4997241;28;20038;-59
2023/08/02 04:33:29;;;;;;;6.55;5.50;;;;;;;;;;4998444;28;20077;-59
2023/08/02 04:35:57;;;;;;;8.27;4.95;;;;;;;;;;4998105;28;20462;-59
2023/08/02 04:38:22;;;;;;;7.45;5.07;;;;;;;;;;4998085;28;20113;-59
2023/08/02 04:40:48;;;;;;;5.85;5.15;;;;;;;;;;4997812;28;20061;-59
2023/08/02 04:43:13;;;;;;;7.60;5.10;;;;;;;;;;4998225;28;20034;-59
2023/08/02 04:45:38;;;;;;;5.25;4.78;;;;;;;;;;4997160;28;20382;-59
2023/08/02 04:48:04;;;;;;;6.97;5.25;;;;;;;;;;4997802;28;20493;-59
2023/08/02 04:50:31;;;;;;;7.22;5.18;;;;;;;;;;4997819;28;20041;-56
2023/08/02 04:52:57;;;;;;;6.90;5.07;;;;;;;;;;4997567;28;20483;-56
2023/08/02 04:55:22;;;;;;;7.18;5.80;;;;;;;;;;4996842;28;20025;-56
2023/08/02 04:57:52;;;;;;;8.15;6.35;;;;;;;;;;4980354;28;20036;-55
2023/08/02 05:00:17;;;;;;;;;;;;;;;;;;4998230;28;20058;-56
2023/08/02 05:02:45;;;;;;;6.13;5.57;;;;;;;;;;4996297;28;19948;-56
2023/08/02 05:05:10;;;;;;;6.65;5.55;;;;;;;;;;4997210;28;20030;-56
2023/08/02 05:07:36;;;;;;;7.07;6.38;;;;;;;;;;4997550;28;20040;-56
2023/08/02 05:10:04;;;;;;;7.57;6.25;;;;;;;;;;4997321;28;20030;-57
2023/08/02 05:12:31;;;;;;;8.25;6.70;;;;;;;;;;4996862;28;20459;-57
2023/08/02 05:14:57;;;;;;;7.60;6.80;;;;;;;;;;5005854;28;20129;-57
2023/08/02 05:17:22;;;;;;;7.63;6.93;;;;;;;;;;4997819;28;20026;-61
2023/08/02 05:19:47;;;;;;;9.52;7.05;;;;;;;;;;5013926;28;20033;-62
2023/08/02 05:22:13;;;;;;;7.75;7.00;;;;;;;;;;5015500;28;20030;-61
2023/08/02 05:24:38;;;;;;;9.43;7.30;;;;;;;;;;5015451;28;20041;-57
2023/08/02 05:27:04;;;;;;;6.43;5.82;;;;;;;;;;5015050;28;20038;-62
2023/08/02 05:29:29;;;;;;;6.95;5.88;;;;;;;;;;5013254;28;20389;-57
2023/08/02 05:31:54;;;;;;;7.07;5.90;;;;;;;;;;4994120;28;20045;-57
2023/08/02 05:34:20;;;;;;;9.55;7.30;;;;;;;;;;5013196;28;20018;-57
2023/08/02 05:36:45;;;;;;;9.57;6.95;;;;;;;;;;5013656;28;20117;-57
2023/08/02 05:39:10;;;;;;;7.75;6.80;;;;;;;;;;5014796;28;20355;-57
2023/08/02 05:41:36;;;;;;;8.10;7.07;;;;;;;;;;5012273;28;20042;-57
2023/08/02 05:44:02;;;;;;;7.85;6.35;;;;;;;;;;5013891;28;20018;-57
2023/08/02 05:46:28;;;;;;;5.63;4.70;;;;;;;;;;5015296;28;20076;-61
2023/08/02 05:48:54;;;;;;;5.75;4.93;;;;;;;;;;5015639;28;20029;-57
2023/08/02 05:51:19;;;;;;;5.60;5.10;;;;;;;;;;5015125;28;20446;-57
2023/08/02 05:53:44;;;;;;;6.53;5.93;;;;;;;;;;4996793;28;20114;-57
2023/08/02 05:56:11;;;;;;;6.50;5.05;;;;;;;;;;5015864;28;20032;-57
2023/08/02 05:58:36;;;;;;;6.32;5.38;;;;;;;;;;5015537;28;20025;-57
2023/08/02 06:01:01;;;;;;;5.15;4.65;;;;;;;;;;4997635;28;20018;-57
2023/08/02 06:03:27;;;;;;;6.35;5.68;;;;;;;;;;5015580;28;20057;-57
2023/08/02 06:05:52;;;;;;;6.72;4.72;;;;;;;;;;5014135;28;20136;-57
2023/08/02 06:08:17;;;;;;;6.68;4.90;;;;;;;;;;5013644;28;20157;-57
2023/08/02 06:10:43;;;;;;;6.07;5.03;;;;;;;;;;5013590;28;20504;-57
2023/08/02 06:13:08;;;;;;;6.45;5.50;;;;;;;;;;5012259;28;20479;-57
2023/08/02 06:15:33;;;;;;;5.47;4.80;;;;;;;;;;5013582;28;20501;-57
2023/08/02 06:17:59;;;;;;;6.88;5.00;;;;;;;;;;5013568;28;20105;-57
2023/08/02 06:20:24;;;;;;;9.05;5.05;;;;;;;;;;5013358;28;20037;-57
2023/08/02 06:22:49;;;;;;;7.00;5.43;;;;;;;;;;5013358;28;20045;-57
2023/08/02 06:25:15;;;;;;;7.78;5.35;;;;;;;;;;5013293;28;20034;-57
2023/08/02 06:27:41;;;;;;;7.25;5.18;;;;;;;;;;5014648;28;20030;-57
2023/08/02 06:30:08;;;;;;;7.68;3.92;;;;;;;;;;5015004;28;20034;-57
2023/08/02 06:32:39;;;;;;;6.25;4.28;;;;;;;;;;5015021;28;20465;-57
2023/08/02 06:35:04;;;;;;;6.05;4.65;;;;;;;;;;4997437;28;20436;-57
2023/08/02 06:37:30;;;;;;;6.72;5.43;;;;;;;;;;5014882;28;20034;-57
2023/08/02 06:39:55;;;;;;;7.78;4.57;;;;;;;;;;5014858;28;20427;-57
2023/08/02 06:42:20;;;;;;;5.47;4.15;;;;;;;;;;5014403;28;20029;-57
2023/08/02 06:44:45;;;;;;;5.65;4.95;;;;;;;;;;5015012;28;20062;-57
2023/08/02 06:47:11;;;;;;;5.78;4.57;;;;;;;;;;5015015;28;20402;-57
2023/08/02 06:49:36;;;;;;;4.13;3.72;;;;;;;;;;5014627;28;20397;-57
2023/08/02 06:52:02;;;;;;;6.88;4.25;;;;;;;;;;5014648;28;20473;-57
2023/08/02 06:54:27;;;;;;;4.97;4.50;;;;;;;;;;5014573;28;20022;-57
2023/08/02 06:56:53;;;;;;;5.00;4.50;;;;;;;;;;4997134;28;20446;-57
2023/08/02 06:59:18;;;;;;;6.40;4.35;;;;;;;;;;5014599;28;20025;-57
2023/08/02 07:01:45;;;;;;;5.88;4.75;;;;;;;;;;5014560;28;20040;-57
2023/08/02 07:04:10;;;;;;;7.72;3.95;;;;;;;;;;5014505;28;20030;-57
2023/08/02 07:06:35;;;;;;;6.80;4.07;;;;;;;;;;4996919;28;20160;-57
2023/08/02 07:09:01;;;;;;;6.03;4.70;;;;;;;;;;5014424;28;20026;-57
2023/08/02 07:11:26;;;;;;;6.35;4.55;;;;;;;;;;5014194;28;20088;-57
2023/08/02 07:13:51;;;;;;;5.32;4.65;;;;;;;;;;5014151;28;20537;-57
2023/08/02 07:16:17;;;;;;;6.82;5.13;;;;;;;;;;5014314;28;20037;-57
2023/08/02 07:18:42;;;;;;;6.32;4.78;;;;;;;;;;5014278;28;20034;-57
2023/08/02 07:21:08;;;;;;;8.52;3.92;;;;;;;;;;5014170;28;20038;-57
2023/08/02 07:23:34;;;;;;;8.40;4.65;;;;;;;;;;5014163;28;20034;-57
2023/08/02 07:25:59;;;;;;;7.40;5.15;;;;;;;;;;5013969;28;20519;-57
2023/08/02 07:28:25;;;;;;;8.35;5.55;;;;;;;;;;4996510;28;20034;-57
2023/08/02 07:30:50;;;;;;;7.45;5.15;;;;;;;;;;4996596;28;20397;-57
2023/08/02 07:33:15;;;;;;;5.60;4.50;;;;;;;;;;5013987;28;20125;-57
2023/08/02 07:35:42;;;;;;;7.57;5.00;;;;;;;;;;5013907;28;20027;-57
2023/08/02 07:38:07;;;;;;;9.77;5.97;;;;;;;;;;5013859;28;20033;-57
2023/08/02 07:40:33;;;;;;;8.32;5.50;;;;;;;;;;5013882;28;20030;-57
2023/08/02 07:42:59;;;;;;;8.13;5.65;;;;;;;;;;5013779;28;20030;-57
2023/08/02 07:45:24;;;;;;;8.32;4.97;;;;;;;;;;5013791;28;20062;-57
2023/08/02 07:47:49;;;;;;;5.15;4.15;;;;;;;;;;4996104;28;20032;-57
2023/08/02 07:50:15;;;;;;;8.57;4.13;;;;;;;;;;5013702;28;20116;-57
2023/08/02 07:52:41;;;;;;;5.38;3.28;;;;;;;;;;5013729;28;20473;-57
2023/08/02 07:55:06;;;;;;;5.38;3.65;;;;;;;;;;5012922;28;20020;-57
2023/08/02 07:57:32;;;;;;;4.00;3.00;;;;;;;;;;5013735;28;20437;-57
2023/08/02 07:59:58;;;;;;;2.95;2.65;;;;;;;;;;5013713;28;20113;-57
2023/08/02 08:02:25;;;;;;;2.30;2.20;;;;;;;;;;5013634;28;20121;-57
2023/08/02 08:04:51;;;;;;;2.47;2.28;;;;;;;;;;4980045;28;20040;-57
2023/08/02 08:07:16;;;;;;;2.47;2.28;;;;;;;;;;5013600;28;20108;-57
2023/08/02 08:09:41;;;;;;;2.40;2.20;;;;;;;;;;5013410;28;20030;-57
2023/08/02 08:12:07;;;;;;;2.08;1.98;;;;;;;;;;5013412;28;20358;-57
2023/08/02 08:14:33;;;;;;;2.65;2.28;;;;;;;;;;5013315;28;20038;-57
2023/08/02 08:16:59;;;;;;;2.45;2.25;;;;;;;;;;5013449;28;20025;-57
2023/08/02 08:19:26;;;;;;;1.98;1.85;;;;;;;;;;4995866;28;20030;-57
2023/08/02 08:21:51;;;;;;;2.10;2.00;;;;;;;;;;5013473;28;20033;-57
2023/08/02 08:24:16;;;;;;;3.17;2.22;;;;;;;;;;5013373;28;20037;-57
2023/08/02 08:26:42;;;;;;;2.42;2.20;;;;;;;;;;5013350;28;20022;-57
2023/08/02 08:29:07;;;;;;;2.08;1.88;;;;;;;;;;4995859;28;20393;-57
2023/08/02 08:31:32;;;;;;;1.98;1.88;;;;;;;;;;5013274;28;20084;-57
2023/08/02 08:33:58;;;;;;;2.00;1.90;;;;;;;;;;4995773;28;20088;-57
2023/08/02 08:36:26;;;;;;;2.10;1.90;;;;;;;;;;5013257;28;20018;-57
2023/08/02 08:38:51;;;;;;;2.03;1.67;;;;;;;;;;5013560;28;20022;-57
2023/08/02 08:41:17;;;;;;;1.85;1.75;;;;;;;;;;5013206;28;20374;-57
2023/08/02 08:43:43;;;;;;;2.08;1.88;;;;;;;;;;4995582;28;20026;-57
2023/08/02 08:46:10;;;;;;;1.98;1.88;;;;;;;;;;5013154;28;20038;-58
2023/08/02 08:48:37;;;;;;;1.92;1.83;;;;;;;;;;4995510;28;20139;-57
2023/08/02 08:51:03;;;;;;;1.90;1.80;;;;;;;;;;5013121;28;20033;-57
2023/08/02 08:53:34;;;;;;;2.30;2.10;;;;;;;;;;4995568;28;20112;-57
2023/08/02 08:56:00;;;;;;;1.92;1.83;;;;;;;;;;5013100;28;20037;-57
2023/08/02 08:58:25;;;;;;;2.47;1.77;;;;;;;;;;4979289;28;20084;-57
2023/08/02 09:00:52;;;;;;;1.98;1.88;;;;;;;;;;5012975;28;20022;-57
2023/08/02 09:03:18;;;;;;;2.08;1.95;;;;;;;;;;5013067;28;20042;-57
2023/08/02 09:05:43;;;;;;;2.30;1.90;;;;;;;;;;5013971;28;20018;-57
2023/08/02 09:08:09;;;;;;;2.38;1.92;;;;;;;;;;4999072;28;20034;-57
2023/08/02 09:10:34;;;;;;;1.90;1.80;;;;;;;;;;5016513;28;20053;-57
2023/08/02 09:12:59;;;;;;;2.67;2.03;;;;;;;;;;5015360;28;20026;-57
2023/08/02 09:15:25;;;;;;;2.17;1.80;;;;;;;;;;5016411;28;20490;-57
2023/08/02 09:17:51;;;;;;;2.28;1.63;;;;;;;;;;5016439;28;20105;-57
2023/08/02 09:20:17;;;;;;;1.98;1.80;;;;;;;;;;4998864;28;20048;-57
2023/08/02 09:22:43;;;;;;;2.10;2.00;;;;;;;;;;5016412;28;20038;-57
2023/08/02 09:25:18;;;;;;;1.90;1.80;;;;;;;;;;5016241;28;20033;-57
2023/08/02 09:27:44;;;;;;;2.10;1.83;;;;;;;;;;5016323;28;20068;-57
2023/08/02 09:30:09;;;;;;;1.58;1.48;;;;;;;;;;5016144;28;20061;-59
2023/08/02 09:32:35;;;;;;;1.98;1.77;;;;;;;;;;5024027;23;20133;-57
2023/08/02 09:35:00;;;;;;;1.90;1.63;;;;;;;;;;4996549;28;20056;-61
2023/08/02 09:37:33;;;;;;;2.00;1.77;;;;;;;;;;4996461;28;20026;-61
2023/08/02 09:40:00;;;;;;;1.88;1.77;;;;;;;;;;4996756;28;20062;-61
2023/08/02 09:42:26;;;;;;;2.15;1.90;;;;;;;;;;4996426;28;20054;-61
2023/08/02 09:44:55;;;;;;;2.42;1.70;;;;;;;;;;4996440;28;20533;-61
2023/08/02 09:47:21;;;;;;;2.40;1.73;;;;;;;;;;4996442;28;20030;-61
2023/08/02 09:50:09;;;;;;;1.80;1.70;;;;;;;;;;4996177;28;20496;-61
2023/08/02 09:52:35;;;;;;;1.42;1.40;;;;;;;;;;4996268;28;20041;-61
2023/08/02 09:55:00;;;;;;;1.80;1.70;;;;;;;;;;4996166;28;20077;-61
2023/08/02 09:57:27;;;;;;;2.85;1.83;;;;;;;;;;4996106;28;20030;-61
2023/08/02 09:59:53;;;;;;;3.40;1.65;;;;;;;;;;4996440;28;20386;-61
2023/08/02 10:02:22;;;;;;;1.80;1.70;;;;;;;;;;4996047;28;20097;-61
2023/08/02 10:04:48;;;;;;;1.77;1.40;;;;;;;;;;4995991;28;20034;-61
2023/08/02 10:07:14;;;;;;;2.28;1.80;;;;;;;;;;4978626;28;20038;-61
2023/08/02 10:09:40;;;;;;;1.60;1.50;;;;;;;;;;4978526;28;20038;-61
2023/08/02 10:12:06;;;;;;;2.08;1.50;;;;;;;;;;4995849;28;20158;-61
2023/08/02 10:14:32;;;;;;;2.17;1.40;;;;;;;;;;4995833;28;20109;-61
2023/08/02 10:16:58;;;;;;;2.00;1.90;;;;;;;;;;4978060;28;20105;-61
2023/08/02 10:19:24;;;;;;;1.42;1.33;;;;;;;;;;4995417;28;20031;-61
2023/08/02 10:21:51;;;;;;;1.48;1.38;;;;;;;;;;4995704;28;20111;-61
2023/08/02 10:24:16;;;;;;;2.20;1.42;;;;;;;;;;4978292;28;20541;-61
2023/08/02 10:26:42;;;;;;;1.65;1.38;;;;;;;;;;4995659;28;20072;-62
2023/08/02 10:29:08;;;;;;;3.35;2.13;;;;;;;;;;4995431;28;20041;-61
2023/08/02 10:31:33;;;;;;;1.40;1.30;;;;;;;;;;4995484;28;20489;-61
2023/08/02 10:33:59;;;;;;;3.28;1.50;;;;;;;;;;4981741;28;20039;-61
2023/08/02 10:36:24;;;;;;;2.95;1.45;;;;;;;;;;4975983;28;20159;-62
2023/08/02 10:38:53;;;;;;;3.47;1.35;;;;;;;;;;4975900;28;20070;-62
2023/08/02 10:41:27;;;;;;;1.10;1.10;;;;;;;;;;4975906;28;20102;-62
2023/08/02 10:43:52;;;;;;;1.92;1.17;;;;;;;;;;4975872;28;20386;-62
2023/08/02 10:46:18;;;;;;;1.50;0.90;;;;;;;;;;4975784;28;20042;-62
2023/08/02 10:48:43;;;;;;;0.95;0.95;;;;;;;;;;4975630;28;20026;-62
2023/08/02 10:51:27;;;;;;;1.33;1.15;;;;;;;;;;4975534;28;20035;-62
2023/08/02 10:54:15;;;;;;;1.25;1.17;;;;;;;;;;4975688;28;20471;-61
2023/08/02 10:56:57;;;;;;;1.45;1.27;;;;;;;;;;4970255;28;20049;-61
2023/08/02 10:59:22;;;;;;;2.15;1.20;;;;;;;;;;4975583;28;20114;-61
2023/08/02 11:01:59;;;;;;;1.35;1.25;;;;;;;;;;4975458;28;20118;-62
2023/08/02 11:04:25;;;;;;;1.45;1.35;;;;;;;;;;4975467;28;20038;-62
2023/08/02 11:06:51;;;;;;;1.48;1.30;;;;;;;;;;4975390;28;20027;-62
2023/08/02 11:09:16;;;;;;;1.10;1.00;;;;;;;;;;4975361;28;20093;-61
2023/08/02 11:11:41;;;;;;;1.40;1.30;;;;;;;;;;4975358;28;20117;-61
2023/08/02 11:14:07;;;;;;;1.30;1.20;;;;;;;;;;4975350;28;20117;-62
2023/08/02 11:16:42;;;;;;;2.33;1.05;;;;;;;;;;4975277;28;20599;-62
2023/08/02 11:19:08;;;;;;;1.00;1.00;;;;;;;;;;4975488;28;20034;-62
2023/08/02 11:21:34;;;;;;;1.40;1.30;;;;;;;;;;4975218;28;20031;-62
2023/08/02 11:24:00;;;;;;;2.22;1.10;;;;;;;;;;4957869;28;20367;-61
2023/08/02 11:26:25;;;;;;;1.35;1.20;;;;;;;;;;4975015;28;20031;-62
2023/08/02 11:28:53;;;;;;;1.92;1.02;;;;;;;;;;4975069;28;20371;-62
2023/08/02 11:31:21;;;;;;;1.27;1.20;;;;;;;;;;4974919;28;20046;-62
2023/08/02 11:33:47;;;;;;;1.30;1.20;;;;;;;;;;4986848;28;20366;-62
2023/08/02 11:36:12;;;;;;;1.20;1.10;;;;;;;;;;4994408;28;20050;-61
2023/08/02 11:38:37;;;;;;;1.27;1.15;;;;;;;;;;4994320;28;20499;-61
2023/08/02 11:41:14;;;;;;;0.90;0.80;;;;;;;;;;4994289;28;20043;-61
2023/08/02 11:43:39;;;;;;;0.90;0.90;;;;;;;;;;4994250;28;20394;-61
2023/08/02 11:46:21;;;;;;;0.70;0.70;;;;;;;;;;4994151;28;20045;-61
2023/08/02 11:48:47;;;;;;;1.17;0.90;;;;;;;;;;4994125;28;20488;-61
2023/08/02 11:51:12;;;;;;;0.93;0.80;;;;;;;;;;4994088;28;20022;-61
2023/08/02 11:53:49;;;;;;;1.08;1.08;;;;;;;;;;4994131;28;20034;-61
2023/08/02 11:56:15;;;;;;;1.20;0.98;;;;;;;;;;4994066;28;20114;-61
2023/08/02 11:58:42;;;;;;;2.13;0.80;;;;;;;;;;4994002;28;20105;-61
2023/08/02 12:01:07;;;;;;;1.80;1.08;;;;;;;;;;4993929;28;20026;-61
2023/08/02 12:03:33;;;;;;;0.85;0.73;;;;;;;;;;4993988;28;20525;-61
2023/08/02 12:05:59;;;;;;;0.80;0.80;;;;;;;;;;4994004;28;20030;-61
2023/08/02 12:08:24;;;;;;;1.00;0.90;;;;;;;;;;4994021;28;20478;-62
2023/08/02 12:10:51;;;;;;;1.70;0.98;;;;;;;;;;4976651;28;20027;-62
2023/08/02 12:13:16;;;;;;;0.80;0.80;;;;;;;;;;4993947;28;20027;-62
2023/08/02 12:16:01;;;;;;;0.85;0.85;;;;;;;;;;4993846;28;20531;-62
2023/08/02 12:18:26;;;;;;;1.05;0.98;;;;;;;;;;4993788;28;20026;-62
2023/08/02 12:20:52;;;;;;;1.05;0.90;;;;;;;;;;4994140;28;20389;-62
2023/08/02 12:23:30;;;;;;;2.10;0.90;;;;;;;;;;4993739;28;20355;-62
2023/08/02 12:25:55;;;;;;;1.35;0.90;;;;;;;;;;4993805;28;20105;-62
2023/08/02 12:28:20;;;;;;;1.50;0.90;;;;;;;;;;4993727;28;20030;-62
2023/08/02 12:31:05;;;;;;;0.63;0.63;;;;;;;;;;4993688;28;20030;-62
2023/08/02 12:33:33;;;;;;;0.75;0.70;;;;;;;;;;4993503;28;20070;-62
2023/08/02 12:35:59;;;;;;;1.08;0.80;;;;;;;;;;4993731;28;20403;-62
2023/08/02 12:38:28;;;;;;;1.23;0.95;;;;;;;;;;4993910;28;20113;-62
2023/08/02 12:40:58;;;;;;;1.42;0.60;;;;;;;;;;4994743;28;20026;-62
2023/08/02 12:43:23;;;;;;;0.73;0.73;;;;;;;;;;4997554;28;20038;-62
2023/08/02 12:45:49;;;;;;;1.75;0.73;;;;;;;;;;4997459;28;20081;-62
2023/08/02 12:48:14;;;;;;;0.90;0.90;;;;;;;;;;4997420;28;20386;-62
2023/08/02 12:50:40;;;;;;;2.20;0.88;;;;;;;;;;4997289;28;20034;-61
2023/08/02 12:53:05;;;;;;;1.58;0.80;;;;;;;;;;4979812;28;20053;-61
2023/08/02 12:55:30;;;;;;;1.00;0.60;;;;;;;;;;4980047;28;20029;-62
2023/08/02 12:57:56;;;;;;;0.90;0.90;;;;;;;;;;4997535;28;20026;-62
2023/08/02 13:00:21;;;;;;;3.10;0.75;;;;;;;;;;4996881;28;20414;-62
2023/08/02 13:02:46;;;;;;;1.75;0.90;;;;;;;;;;4997702;28;20065;-62
2023/08/02 13:05:12;;;;;;;1.65;0.90;;;;;;;;;;4979873;28;20022;-62
2023/08/02 13:07:37;;;;;;;1.02;0.90;;;;;;;;;;4980282;28;20038;-62
2023/08/02 13:10:02;;;;;;;0.80;0.80;;;;;;;;;;4997313;28;20026;-62
2023/08/02 13:12:28;;;;;;;0.77;0.77;;;;;;;;;;4997335;28;20029;-62
2023/08/02 13:14:55;;;;;;;0.82;0.80;;;;;;;;;;4997177;28;20501;-62
2023/08/02 13:17:20;;;;;;;1.27;0.80;;;;;;;;;;4997242;28;20033;-62
2023/08/02 13:19:46;;;;;;;1.17;1.02;;;;;;;;;;4980356;28;20038;-62
2023/08/02 13:22:11;;;;;;;0.77;0.77;;;;;;;;;;4997193;28;20074;-62
2023/08/02 13:24:37;;;;;;;1.35;0.73;;;;;;;;;;4989153;28;20073;-62
2023/08/02 13:27:02;;;;;;;0.70;0.70;;;;;;;;;;4977854;28;20081;-62
2023/08/02 13:29:27;;;;;;;2.03;0.80;;;;;;;;;;4977563;28;20060;-62
2023/08/02 13:31:53;;;;;;;0.93;0.93;;;;;;;;;;4977738;28;20089;-62
2023/08/02 13:34:18;;;;;;;0.85;0.75;;;;;;;;;;4961272;28;20118;-62
2023/08/02 13:36:43;;;;;;;0.95;0.80;;;;;;;;;;4958127;29;20382;-62
2023/08/02 13:39:09;;;;;;;0.80;0.80;;;;;;;;;;4941723;29;20041;-62
2023/08/02 13:41:35;;;;;;;0.80;0.80;;;;;;;;;;4958603;29;20039;-62
2023/08/02 13:44:00;;;;;;;1.27;0.70;;;;;;;;;;4958321;29;20031;-61
2023/08/02 13:46:26;;;;;;;0.90;0.75;;;;;;;;;;4940736;29;20030;-61
2023/08/02 13:48:51;;;;;;;1.13;0.80;;;;;;;;;;4957903;29;20364;-61
2023/08/02 13:51:17;;;;;;;0.80;0.80;;;;;;;;;;4957806;29;20035;-61
2023/08/02 13:53:42;;;;;;;1.08;0.65;;;;;;;;;;4956910;28;20114;-61
2023/08/02 13:56:07;;;;;;;1.08;0.80;;;;;;;;;;4971771;28;20379;-62
2023/08/02 13:58:32;;;;;;;1.73;0.88;;;;;;;;;;4976997;28;20057;-62
2023/08/02 14:00:58;;;;;;;1.70;0.90;;;;;;;;;;4977157;28;20023;-62
2023/08/02 14:03:23;;;;;;;1.83;0.73;;;;;;;;;;4976951;28;20045;-62
2023/08/02 14:05:49;;;;;;;0.90;0.80;;;;;;;;;;4976565;28;20027;-62
2023/08/02 14:08:14;;;;;;;0.63;0.63;;;;;;;;;;4991374;23;20038;-58
2023/08/02 14:10:43;;;;;;;0.80;0.80;;;;;;;;;;5033830;28;20155;-57
2023/08/02 14:13:09;;;;;;;0.55;0.55;;;;;;;;;;5035504;28;20075;-57
2023/08/02 14:15:39;;;;;;;0.52;0.50;;;;;;;;;;5000913;28;20042;-57
2023/08/02 14:18:04;;;;;;;1.40;0.63;;;;;;;;;;5034708;28;20080;-57
2023/08/02 14:20:30;;;;;;;0.52;0.50;;;;;;;;;;5035772;28;20045;-57
2023/08/02 14:22:56;;;;;;;0.80;0.80;;;;;;;;;;5035059;28;20463;-58
2023/08/02 14:25:21;;;;;;;1.85;0.95;;;;;;;;;;5033508;28;20096;-57
2023/08/02 14:27:46;;;;;;;1.92;0.80;;;;;;;;;;5033355;28;20033;-57
2023/08/02 14:30:11;;;;;;;1.83;1.10;;;;;;;;;;5015542;28;20423;-57
2023/08/02 14:32:37;;;;;;;0.77;0.77;;;;;;;;;;5033537;28;20026;-57
2023/08/02 14:35:02;;;;;;;1.17;0.80;;;;;;;;;;5033939;28;20465;-58
2023/08/02 14:37:29;;;;;;;1.25;0.70;;;;;;;;;;5034128;28;20499;-57
2023/08/02 14:39:55;;;;;;;1.00;0.80;;;;;;;;;;5034609;28;20052;-57
2023/08/02 14:42:20;;;;;;;1.73;1.00;;;;;;;;;;5034192;28;20481;-58
2023/08/02 14:44:46;;;;;;;1.58;1.00;;;;;;;;;;5034336;28;20033;-58